createdAt,value
2019-04-29T00:02:27.655Z,26.10
2019-04-29T00:04:53.938Z,26.93
2019-04-29T00:07:20.211Z,21.60
2019-04-29T00:09:46.410Z,25.53
2019-04-29T00:12:12.981Z,22.70
2019-04-29T00:14:41.064Z,23.50
2019-04-29T00:17:09.166Z,22.20
2019-04-29T00:19:37.250Z,28.27
2019-04-29T00:22:03.525Z,25.00
2019-04-29T00:24:29.729Z,24.33
2019-04-29T00:26:56.005Z,20.97
2019-04-29T00:29:22.167Z,25.83
2019-04-29T00:31:48.570Z,27.17
2019-04-29T00:34:14.846Z,27.00
2019-04-29T00:36:42.929Z,31.23
2019-04-29T00:39:11.122Z,31.83
2019-04-29T00:41:39.202Z,37.93
2019-04-29T00:44:07.287Z,30.60
2019-04-29T00:46:33.934Z,32.17
2019-04-29T00:49:00.123Z,30.30
2019-04-29T00:51:26.286Z,35.27
2019-04-29T00:53:54.399Z,36.67
2019-04-29T00:56:20.571Z,38.60
2019-04-29T00:58:46.742Z,35.70
2019-04-29T01:01:14.843Z,39.00
2019-04-29T01:03:41.306Z,34.43
2019-04-29T01:06:07.705Z,39.70
2019-04-29T01:08:33.961Z,42.53
2019-04-29T01:11:00.078Z,34.47
2019-04-29T01:13:26.350Z,44.67
2019-04-29T01:15:52.554Z,39.37
2019-04-29T01:18:18.723Z,35.50
2019-04-29T01:20:44.890Z,37.93
2019-04-29T01:23:11.174Z,43.90
2019-04-29T01:25:37.359Z,39.07
2019-04-29T01:28:05.424Z,39.10
2019-04-29T01:30:33.638Z,40.27
2019-04-29T01:32:59.805Z,36.57
2019-04-29T01:35:25.975Z,42.30
2019-04-29T01:37:52.249Z,29.73
2019-04-29T01:40:20.326Z,41.33
2019-04-29T01:42:46.490Z,39.67
2019-04-29T01:45:12.690Z,38.63
2019-04-29T01:47:39.266Z,44.77
2019-04-29T01:50:05.439Z,35.93
2019-04-29T01:52:31.718Z,42.50
2019-04-29T01:54:57.894Z,42.87
2019-04-29T01:57:24.070Z,45.33
2019-04-29T01:59:50.454Z,36.40
2019-04-29T02:02:16.622Z,50.93
2019-04-29T02:04:42.895Z,47.13
2019-04-29T02:07:09.095Z,44.37
2019-04-29T02:09:37.179Z,46.27
2019-04-29T02:12:03.454Z,42.57
2019-04-29T02:14:29.722Z,44.43
2019-04-29T02:16:55.900Z,44.83
2019-04-29T02:19:22.070Z,44.60
2019-04-29T02:21:50.170Z,52.40
2019-04-29T02:24:18.262Z,45.30
2019-04-29T02:26:44.542Z,46.47
2019-04-29T02:29:10.748Z,43.77
2019-04-29T02:31:36.923Z,48.70
2019-04-29T02:34:03.194Z,42.87
2019-04-29T02:36:30.151Z,49.33
2019-04-29T02:38:58.583Z,42.90
2019-04-29T02:41:26.760Z,45.57
2019-04-29T02:43:54.877Z,42.07
2019-04-29T02:46:21.043Z,48.23
2019-04-29T02:48:48.378Z,50.97
2019-04-29T02:51:16.476Z,47.70
2019-04-29T02:53:42.646Z,44.40
2019-04-29T02:56:08.818Z,47.50
2019-04-29T02:58:36.929Z,53.03
2019-04-29T03:01:05.003Z,55.73
2019-04-29T03:03:33.083Z,48.67
2019-04-29T03:06:01.198Z,53.00
2019-04-29T03:08:27.358Z,44.30
2019-04-29T03:10:53.523Z,47.90
2019-04-29T03:13:19.718Z,44.57
2019-04-29T03:15:45.907Z,46.60
2019-04-29T03:18:12.075Z,56.70
2019-04-29T03:20:40.184Z,60.53
2019-04-29T03:23:08.268Z,62.07
2019-04-29T03:25:34.457Z,56.77
2019-04-29T03:28:00.636Z,62.67
2019-04-29T03:30:26.815Z,69.33
2019-04-29T03:32:53.093Z,57.53
2019-04-29T03:35:19.289Z,58.97
2019-04-29T03:37:45.455Z,74.23
2019-04-29T03:40:11.625Z,58.47
2019-04-29T03:42:37.962Z,60.37
2019-04-29T03:45:05.745Z,64.00
2019-04-29T03:47:31.909Z,65.53
2019-04-29T03:49:58.440Z,66.40
2019-04-29T03:52:24.627Z,47.47
2019-04-29T03:54:50.886Z,47.40
2019-04-29T03:57:18.472Z,40.23
2019-04-29T03:59:44.657Z,41.27
2019-04-29T04:02:12.728Z,42.00
2019-04-29T04:04:40.906Z,44.80
2019-04-29T04:07:08.989Z,43.23
2019-04-29T04:09:35.253Z,46.93
2019-04-29T04:12:01.531Z,58.37
2019-04-29T04:14:27.810Z,55.93
2019-04-29T04:16:55.887Z,51.43
2019-04-29T04:19:23.097Z,47.70
2019-04-29T04:21:49.280Z,50.93
2019-04-29T04:24:15.549Z,51.50
2019-04-29T04:26:41.750Z,50.93
2019-04-29T04:29:07.920Z,61.63
2019-04-29T04:31:34.098Z,54.83
2019-04-29T04:34:00.302Z,54.47
2019-04-29T04:36:26.474Z,60.77
2019-04-29T04:38:52.650Z,58.73
2019-04-29T04:41:18.861Z,56.93
2019-04-29T04:43:45.033Z,52.37
2019-04-29T04:46:11.203Z,66.63
2019-04-29T04:48:37.407Z,47.33
2019-04-29T04:51:04.978Z,45.03
2019-04-29T04:53:31.147Z,33.73
2019-04-29T04:55:59.246Z,29.80
2019-04-29T04:58:25.414Z,29.30
2019-04-29T05:00:51.596Z,30.13
2019-04-29T05:03:17.802Z,31.73
2019-04-29T05:05:43.978Z,37.77
2019-04-29T05:08:10.350Z,32.87
2019-04-29T05:10:36.550Z,33.80
2019-04-29T05:13:02.732Z,35.87
2019-04-29T05:15:28.898Z,28.23
2019-04-29T05:17:55.182Z,33.13
2019-04-29T05:20:21.360Z,33.83
2019-04-29T05:22:49.445Z,38.50
2019-04-29T05:25:15.642Z,36.50
2019-04-29T05:27:41.821Z,35.77
2019-04-29T05:30:08.093Z,32.17
2019-04-29T05:32:34.281Z,37.80
2019-04-29T05:35:02.357Z,34.63
2019-04-29T05:37:30.434Z,40.50
2019-04-29T05:39:56.731Z,37.47
2019-04-29T05:42:22.963Z,42.20
2019-04-29T05:44:50.968Z,38.87
2019-04-29T05:47:19.077Z,44.70
2019-04-29T05:49:47.159Z,46.37
2019-04-29T05:52:16.602Z,41.03
2019-04-29T05:54:44.515Z,42.07
2019-04-29T05:57:10.891Z,37.70
2019-04-29T05:59:37.060Z,34.77
2019-04-29T06:02:03.349Z,33.27
2019-04-29T06:04:29.519Z,34.73
2019-04-29T06:06:55.687Z,31.60
2019-04-29T06:09:21.908Z,30.17
2019-04-29T06:11:48.083Z,29.23
2019-04-29T06:14:14.255Z,30.37
2019-04-29T06:16:40.539Z,25.57
2019-04-29T06:19:06.713Z,27.17
2019-04-29T06:21:33.286Z,26.67
2019-04-29T06:24:04.063Z,25.40
2019-04-29T06:26:27.542Z,24.13
2019-04-29T06:28:54.077Z,26.50
2019-04-29T06:31:20.475Z,23.10
2019-04-29T06:33:46.681Z,23.43
2019-04-29T06:36:12.854Z,26.03
2019-04-29T06:38:40.965Z,21.97
2019-04-29T06:41:09.822Z,33.57
2019-04-29T06:43:35.108Z,30.20
2019-04-29T06:46:01.490Z,25.00
2019-04-29T06:48:27.666Z,26.40
2019-04-29T06:50:53.839Z,20.07
2019-04-29T06:53:23.156Z,27.13
2019-04-29T06:55:51.854Z,25.50
2019-04-29T06:58:18.340Z,21.83
2019-04-29T07:00:44.646Z,23.07
2019-04-29T07:03:10.826Z,21.40
2019-04-29T07:05:36.990Z,22.83
2019-04-29T07:08:03.188Z,24.27
2019-04-29T07:10:29.386Z,30.53
2019-04-29T07:12:55.586Z,23.23
2019-04-29T07:15:21.782Z,28.83
2019-04-29T07:17:47.954Z,23.73
2019-04-29T07:20:14.226Z,34.67
2019-04-29T07:22:40.564Z,29.50
2019-04-29T07:25:06.747Z,41.13
2019-04-29T07:27:34.841Z,40.90
2019-04-29T07:30:01.873Z,41.07
2019-04-29T07:32:32.070Z,25.17
2019-04-29T07:34:57.091Z,25.63
2019-04-29T07:37:23.334Z,34.20
2019-04-29T07:39:49.510Z,27.53
2019-04-29T07:42:15.690Z,23.37
2019-04-29T07:44:44.489Z,31.73
2019-04-29T07:47:10.786Z,23.50
2019-04-29T07:49:36.969Z,22.90
2019-04-29T07:52:03.470Z,39.10
2019-04-29T07:54:29.946Z,23.13
2019-04-29T07:56:56.122Z,25.73
2019-04-29T07:59:23.730Z,12.40
2019-04-29T08:01:50.164Z,14.33
2019-04-29T08:04:16.272Z,13.67
2019-04-29T08:06:44.458Z,11.50
2019-04-29T08:09:10.538Z,18.07
2019-04-29T08:11:36.701Z,18.60
2019-04-29T08:14:03.004Z,17.40
2019-04-29T08:16:29.177Z,18.57
2019-04-29T08:18:55.469Z,24.40
2019-04-29T08:21:21.754Z,17.37
2019-04-29T08:23:48.026Z,20.13
2019-04-29T08:26:14.209Z,18.73
2019-04-29T08:28:40.398Z,19.83
2019-04-29T08:31:06.570Z,19.97
2019-04-29T08:33:32.842Z,25.93
2019-04-29T08:35:59.046Z,25.37
2019-04-29T08:38:25.230Z,20.00
2019-04-29T08:40:51.747Z,19.27
2019-04-29T08:43:20.626Z,24.27
2019-04-29T08:45:49.878Z,23.17
2019-04-29T08:48:16.266Z,17.67
2019-04-29T08:50:42.466Z,21.80
2019-04-29T08:53:08.643Z,18.17
2019-04-29T08:55:36.553Z,29.90
2019-04-29T08:58:06.776Z,27.73
2019-04-29T09:00:31.042Z,28.93
2019-04-29T09:02:57.517Z,26.37
2019-04-29T09:05:24.169Z,27.50
2019-04-29T09:07:52.653Z,29.20
2019-04-29T09:10:18.312Z,31.80
2019-04-29T09:12:44.522Z,31.67
2019-04-29T09:15:10.885Z,26.30
2019-04-29T09:17:37.055Z,20.87
2019-04-29T09:20:05.266Z,34.70
2019-04-29T09:22:33.337Z,36.03
2019-04-29T09:25:01.436Z,31.90
2019-04-29T09:27:27.640Z,27.13
2019-04-29T09:29:54.252Z,32.20
2019-04-29T09:32:21.807Z,30.13
2019-04-29T09:34:48.081Z,32.33
2019-04-29T09:37:14.264Z,37.67
2019-04-29T09:39:43.777Z,34.30
2019-04-29T09:42:13.023Z,33.37
2019-04-29T09:44:44.879Z,39.53
2019-04-29T09:47:11.288Z,40.30
2019-04-29T09:49:37.573Z,37.30
2019-04-29T09:52:04.739Z,41.73
2019-04-29T09:54:30.922Z,40.67
2019-04-29T09:56:58.199Z,40.00
2019-04-29T09:59:26.279Z,33.10
2019-04-29T10:01:54.962Z,39.57
2019-04-29T10:04:24.353Z,35.17
2019-04-29T10:06:52.434Z,32.90
2019-04-29T10:09:18.751Z,47.93
2019-04-29T10:11:44.946Z,41.63
2019-04-29T10:14:11.118Z,43.90
2019-04-29T10:16:39.214Z,39.80
2019-04-29T10:19:07.310Z,38.87
2019-04-29T10:21:33.787Z,43.83
2019-04-29T10:24:00.067Z,44.90
2019-04-29T10:26:26.348Z,39.83
2019-04-29T10:28:54.431Z,36.80
2019-04-29T10:31:21.699Z,35.67
2019-04-29T10:33:50.259Z,37.40
2019-04-29T10:36:16.071Z,32.90
2019-04-29T10:38:44.892Z,35.23
2019-04-29T10:41:14.073Z,34.10
2019-04-29T10:43:42.150Z,32.17
2019-04-29T10:46:10.739Z,31.13
2019-04-29T10:48:39.498Z,29.40
2019-04-29T10:51:07.569Z,35.90
2019-04-29T10:53:33.746Z,34.63
2019-04-29T10:56:01.023Z,43.67
2019-04-29T10:58:31.202Z,38.20
2019-04-29T11:01:02.865Z,39.77
2019-04-29T11:03:29.351Z,43.77
2019-04-29T11:06:00.386Z,40.00
2019-04-29T11:08:25.506Z,43.60
2019-04-29T11:10:52.090Z,43.70
2019-04-29T11:13:18.278Z,42.33
2019-04-29T11:15:44.979Z,44.80
2019-04-29T11:18:12.471Z,47.27
2019-04-29T11:20:38.638Z,38.60
2019-04-29T11:23:09.239Z,43.43
2019-04-29T11:25:36.718Z,45.50
2019-04-29T11:28:03.157Z,46.10
2019-04-29T11:30:34.859Z,56.40
2019-04-29T11:33:04.655Z,45.30
2019-04-29T11:35:35.545Z,49.17
2019-04-29T11:38:00.072Z,52.50
2019-04-29T11:40:42.601Z,49.37
2019-04-29T11:42:54.282Z,46.47
2019-04-29T11:45:20.666Z,42.67
2019-04-29T11:47:46.838Z,37.00
2019-04-29T11:50:14.907Z,46.60
2019-04-29T11:52:41.510Z,46.10
2019-04-29T11:55:07.786Z,38.97
2019-04-29T11:57:41.029Z,44.73
2019-04-29T12:00:10.222Z,44.90
2019-04-29T12:02:45.329Z,38.77
2019-04-29T12:05:08.966Z,39.17
2019-04-29T12:07:36.266Z,42.57
2019-04-29T12:10:06.466Z,40.37
2019-04-29T12:12:32.726Z,38.73
2019-04-29T12:15:00.840Z,40.23
2019-04-29T12:17:28.921Z,43.03
2019-04-29T12:19:57.005Z,40.00
2019-04-29T12:22:30.062Z,38.23
2019-04-29T12:24:51.374Z,39.73
2019-04-29T12:27:19.723Z,39.30
2019-04-29T12:29:48.928Z,42.87
2019-04-29T12:32:15.836Z,42.13
2019-04-29T12:34:43.907Z,40.63
2019-04-29T12:37:12.014Z,38.90
2019-04-29T12:39:43.501Z,45.30
2019-04-29T12:42:08.182Z,42.47
2019-04-29T12:44:39.889Z,45.00
2019-04-29T12:47:07.474Z,41.00
2019-04-29T12:49:42.422Z,44.43
2019-04-29T12:52:06.706Z,41.07
2019-04-29T12:54:32.881Z,43.47
2019-04-29T12:56:59.059Z,40.93
2019-04-29T12:59:25.287Z,48.53
2019-04-29T13:01:58.391Z,38.53
2019-04-29T13:04:23.658Z,43.17
2019-04-29T13:06:51.850Z,37.80
2019-04-29T13:09:18.301Z,39.57
2019-04-29T13:11:48.769Z,37.43
2019-04-29T13:14:12.631Z,40.50
2019-04-29T13:16:40.706Z,37.57
2019-04-29T13:19:12.541Z,35.40
2019-04-29T13:21:39.326Z,39.27
2019-04-29T13:24:13.867Z,33.83
2019-04-29T13:26:33.401Z,37.40
2019-04-29T13:29:01.670Z,36.33
2019-04-29T13:31:38.212Z,37.10
2019-04-29T13:34:04.835Z,34.23
2019-04-29T13:36:26.341Z,39.97
2019-04-29T13:38:54.041Z,36.13
2019-04-29T13:41:26.617Z,31.37
2019-04-29T13:44:05.689Z,34.10
2019-04-29T13:46:32.978Z,26.57
2019-04-29T13:49:06.862Z,28.40
2019-04-29T13:51:36.134Z,31.03
2019-04-29T13:53:59.086Z,24.10
2019-04-29T13:56:35.172Z,26.50
2019-04-29T13:58:54.082Z,28.13
2019-04-29T14:01:31.125Z,26.63
2019-04-29T14:03:52.682Z,24.43
2019-04-29T14:06:19.939Z,26.27
2019-04-29T14:08:46.326Z,29.73
2019-04-29T14:11:12.557Z,29.30
2019-04-29T14:13:43.640Z,28.90
2019-04-29T14:16:11.574Z,32.13
2019-04-29T14:18:35.990Z,32.57
2019-04-29T14:21:02.166Z,34.60
2019-04-29T14:23:28.819Z,33.47
2019-04-29T14:25:55.024Z,27.20
2019-04-29T14:28:21.202Z,29.73
2019-04-29T14:30:48.878Z,24.93
2019-04-29T14:33:19.320Z,29.90
2019-04-29T14:35:48.243Z,28.43
2019-04-29T14:38:15.243Z,27.63
2019-04-29T14:40:42.803Z,27.77
2019-04-29T14:43:26.033Z,26.37
2019-04-29T14:45:39.314Z,24.17
2019-04-29T14:48:07.616Z,30.70
2019-04-29T14:50:33.991Z,26.73
2019-04-29T14:53:00.171Z,22.00
2019-04-29T14:55:27.084Z,22.50
2019-04-29T14:57:53.390Z,24.37
2019-04-29T15:00:21.665Z,18.00
2019-04-29T15:02:48.131Z,21.53
2019-04-29T15:05:15.078Z,18.33
2019-04-29T15:07:41.466Z,13.37
2019-04-29T15:10:08.099Z,19.67
2019-04-29T15:12:36.369Z,16.20
2019-04-29T15:15:06.598Z,14.50
2019-04-29T15:17:34.719Z,15.17
2019-04-29T15:20:02.859Z,16.93
2019-04-29T15:22:30.995Z,13.13
2019-04-29T15:24:57.293Z,10.73
2019-04-29T15:27:23.475Z,15.10
2019-04-29T15:29:49.651Z,11.17
2019-04-29T15:32:17.900Z,13.57
2019-04-29T15:34:47.714Z,11.37
2019-04-29T15:37:11.912Z,12.23
2019-04-29T15:39:40.903Z,8.30
2019-04-29T15:42:08.601Z,11.00
2019-04-29T15:44:34.347Z,7.23
2019-04-29T15:47:00.633Z,5.97
2019-04-29T15:49:26.798Z,6.37
2019-04-29T15:51:53.010Z,9.50
2019-04-29T15:54:19.216Z,3.33
2019-04-29T15:56:45.381Z,6.10
2019-04-29T15:59:11.554Z,5.33
2019-04-29T16:01:41.389Z,5.70
2019-04-29T16:04:07.746Z,12.70
2019-04-29T16:06:39.964Z,5.77
2019-04-29T16:09:07.590Z,6.63
2019-04-29T16:11:35.678Z,11.20
2019-04-29T16:14:09.537Z,10.33
2019-04-29T16:16:30.982Z,4.73
2019-04-29T16:19:07.308Z,7.27
2019-04-29T16:21:25.326Z,3.97
2019-04-29T16:23:57.476Z,5.00
2019-04-29T16:26:24.835Z,7.47
2019-04-29T16:28:47.679Z,6.10
2019-04-29T16:31:14.453Z,4.23
2019-04-29T16:33:40.876Z,3.67
2019-04-29T16:36:07.026Z,2.57
2019-04-29T16:38:33.230Z,4.43
2019-04-29T16:41:01.408Z,3.60
2019-04-29T16:43:29.474Z,8.53
2019-04-29T16:45:57.570Z,5.40
2019-04-29T16:48:24.042Z,3.60
2019-04-29T16:50:50.245Z,5.57
2019-04-29T16:53:16.422Z,2.87
2019-04-29T16:55:43.454Z,5.53
2019-04-29T16:58:17.832Z,1.87
2019-04-29T17:00:39.403Z,3.13
2019-04-29T17:03:05.603Z,8.63
2019-04-29T17:05:31.761Z,1.47
2019-04-29T17:07:58.457Z,1.97
2019-04-29T17:10:24.638Z,2.83
2019-04-29T17:12:51.418Z,4.30
2019-04-29T17:15:25.150Z,3.17
2019-04-29T17:17:46.009Z,4.77
2019-04-29T17:20:12.374Z,3.57
2019-04-29T17:22:43.415Z,6.97
2019-04-29T17:25:08.769Z,3.93
2019-04-29T17:27:41.965Z,2.90
2019-04-29T17:30:08.344Z,5.67
2019-04-29T17:32:44.396Z,5.83
2019-04-29T17:35:05.854Z,7.93
2019-04-29T17:37:32.302Z,2.77
2019-04-29T17:39:58.474Z,3.20
2019-04-29T17:42:26.554Z,2.87
2019-04-29T17:44:52.749Z,2.83
2019-04-29T17:47:20.931Z,2.47
2019-04-29T17:49:49.195Z,2.27
2019-04-29T17:52:17.992Z,3.87
2019-04-29T17:54:46.209Z,1.90
2019-04-29T17:57:26.485Z,2.07
2019-04-29T17:59:45.540Z,1.33
2019-04-29T18:02:21.852Z,3.27
2019-04-29T18:04:42.050Z,9.33
2019-04-29T18:07:12.272Z,4.57
2019-04-29T18:09:40.478Z,2.97
2019-04-29T18:12:08.566Z,2.43
2019-04-29T18:14:38.913Z,2.77
2019-04-29T18:17:05.050Z,3.13
2019-04-29T18:19:34.909Z,5.20
2019-04-29T18:22:03.242Z,5.07
2019-04-29T18:24:34.125Z,5.17
2019-04-29T18:27:01.310Z,2.80
2019-04-29T18:29:27.615Z,6.77
2019-04-29T18:31:55.552Z,3.20
2019-04-29T18:34:21.874Z,8.53
2019-04-29T18:36:48.178Z,4.93
2019-04-29T18:39:20.108Z,10.67
2019-04-29T18:41:44.841Z,11.87
2019-04-29T18:44:19.019Z,11.30
2019-04-29T18:46:39.158Z,17.73
2019-04-29T18:49:07.083Z,15.07
2019-04-29T18:51:34.773Z,14.90
2019-04-29T18:54:01.009Z,12.17
2019-04-29T18:56:27.382Z,18.17
2019-04-29T18:58:53.586Z,16.27
2019-04-29T19:01:24.047Z,14.07
2019-04-29T19:03:49.959Z,16.23
2019-04-29T19:06:16.354Z,20.23
2019-04-29T19:08:42.518Z,20.50
2019-04-29T19:11:09.086Z,15.67
2019-04-29T19:13:36.263Z,15.97
2019-04-29T19:16:09.593Z,16.90
2019-04-29T19:18:30.754Z,15.93
2019-04-29T19:20:57.125Z,16.30
2019-04-29T19:23:24.611Z,13.33
2019-04-29T19:25:51.342Z,17.37
2019-04-29T19:28:29.965Z,15.13
2019-04-29T19:30:45.769Z,16.80
2019-04-29T19:33:12.002Z,18.30
2019-04-29T19:35:38.746Z,26.33
2019-04-29T19:38:06.963Z,15.93
2019-04-29T19:40:39.027Z,21.13
2019-04-29T19:43:01.406Z,18.03
2019-04-29T19:45:27.682Z,14.13
2019-04-29T19:47:55.684Z,15.10
2019-04-29T19:50:21.854Z,14.80
2019-04-29T19:52:48.130Z,11.93
2019-04-29T19:55:14.475Z,16.33
2019-04-29T19:57:46.646Z,16.77
2019-04-29T20:00:09.312Z,13.43
2019-04-29T20:02:36.518Z,16.27
2019-04-29T20:05:08.333Z,19.70
2019-04-29T20:07:41.281Z,16.20
2019-04-29T20:10:08.327Z,17.80
2019-04-29T20:12:33.599Z,19.73
2019-04-29T20:15:02.348Z,14.93
2019-04-29T20:17:31.522Z,18.20
2019-04-29T20:20:00.826Z,14.97
2019-04-29T20:22:27.461Z,15.63
2019-04-29T20:24:55.631Z,15.97
2019-04-29T20:27:25.886Z,11.23
2019-04-29T20:29:49.908Z,14.13
2019-04-29T20:32:16.749Z,17.97
2019-04-29T20:34:43.320Z,12.13
2019-04-29T20:37:10.830Z,16.40
2019-04-29T20:39:37.710Z,13.93
2019-04-29T20:42:06.446Z,12.87
2019-04-29T20:44:32.211Z,15.40
2019-04-29T20:47:17.113Z,17.53
2019-04-29T20:49:26.658Z,18.60
2019-04-29T20:51:56.412Z,14.70
2019-04-29T20:54:25.447Z,14.97
2019-04-29T20:57:02.094Z,14.23
2019-04-29T20:59:20.092Z,15.10
2019-04-29T21:01:48.437Z,10.13
2019-04-29T21:04:30.575Z,15.53
2019-04-29T21:06:57.537Z,16.97
2019-04-29T21:09:10.770Z,16.20
2019-04-29T21:11:38.863Z,14.70
2019-04-29T21:14:08.435Z,14.77
2019-04-29T21:16:36.529Z,14.33
2019-04-29T21:19:08.265Z,15.90
2019-04-29T21:21:36.895Z,15.57
2019-04-29T21:24:01.190Z,16.43
2019-04-29T21:26:27.686Z,12.17
2019-04-29T21:28:55.422Z,12.53
2019-04-29T21:31:21.938Z,12.50
2019-04-29T21:33:50.744Z,14.10
2019-04-29T21:36:18.025Z,9.03
2019-04-29T21:38:48.375Z,16.00
2019-04-29T21:41:20.166Z,14.60
2019-04-29T21:43:52.999Z,11.57
2019-04-29T21:46:18.024Z,8.60
2019-04-29T21:48:42.776Z,9.73
2019-04-29T21:51:11.210Z,11.50
2019-04-29T21:53:40.234Z,9.23
2019-04-29T21:56:09.165Z,14.17
2019-04-29T21:58:34.090Z,14.53
2019-04-29T22:01:00.921Z,13.30
2019-04-29T22:03:28.061Z,14.20
2019-04-29T22:05:55.583Z,11.77
2019-04-29T22:08:27.167Z,14.37
2019-04-29T22:10:50.250Z,10.97
2019-04-29T22:13:16.434Z,13.77
2019-04-29T22:15:43.167Z,12.93
2019-04-29T22:18:13.642Z,11.33
2019-04-29T22:20:42.210Z,14.40
2019-04-29T22:23:08.285Z,14.83
2019-04-29T22:25:33.400Z,14.00
2019-04-29T22:27:59.659Z,13.33
2019-04-29T22:30:26.552Z,10.83
2019-04-29T22:32:58.112Z,9.80
2019-04-29T22:35:21.277Z,13.00
2019-04-29T22:37:47.440Z,15.60
2019-04-29T22:40:15.418Z,10.67
2019-04-29T22:42:45.658Z,19.17
2019-04-29T22:45:11.879Z,22.17
2019-04-29T22:47:38.086Z,15.93
2019-04-29T22:50:04.555Z,14.83
2019-04-29T22:52:31.484Z,14.27
2019-04-29T22:55:01.415Z,13.63
2019-04-29T22:57:30.124Z,11.13
2019-04-29T22:59:57.105Z,16.23
2019-04-29T23:02:25.117Z,12.13
2019-04-29T23:04:53.740Z,15.20
2019-04-29T23:07:22.215Z,16.23
2019-04-29T23:09:47.836Z,19.13
2019-04-29T23:12:18.422Z,16.57
2019-04-29T23:14:44.442Z,17.93
2019-04-29T23:17:12.216Z,13.67
2019-04-29T23:19:38.896Z,19.20
2019-04-29T23:22:10.419Z,15.37
2019-04-29T23:24:38.162Z,15.37
2019-04-29T23:27:06.151Z,18.20
2019-04-29T23:29:32.494Z,13.80
2019-04-29T23:31:59.658Z,18.97
2019-04-29T23:34:29.161Z,12.03
2019-04-29T23:36:54.691Z,15.23
2019-04-29T23:39:20.873Z,10.00
2019-04-29T23:41:47.044Z,12.40
2019-04-29T23:44:13.210Z,18.50
2019-04-29T23:46:39.664Z,16.03
2019-04-29T23:49:06.775Z,14.10
2019-04-29T23:51:34.292Z,18.83
2019-04-29T23:54:05.894Z,11.07
2019-04-29T23:56:31.031Z,15.10
2019-04-29T23:58:59.090Z,10.17
